Sarcoxie, Missouri
Current Conditions -  °F | °C
As of 12:15 PM on Monday 22 Dec 2014 (Local Time) from KHFJ Reporting Station
Haze Haze  
Wind Chill: 43°   Ceiling: 500
Heat Index: 46°   Visibility: 4mi
Dew Point: 46°   Wind: 7mph
Humidity: 100%   Direction: 160°SSE
Pressure: 29.52"   Gusts: NA
Location:  37.07°N, 94.12°W
Report Text: KHFJ 221815Z AUTO 16006KT 4SM BR OVC005 08/08 A2952 RMK AO2
Loading
Personal Weather Stations






























Interactive Weather Map New forecast layout! Learn more

10-Day Weather Forecast

Advertisements
Track Severe Weather on mobile